createdAt,value
2022-08-01T00:03:03.365Z,19.55
2022-08-01T00:07:06.531Z,19.55
2022-08-01T00:11:10.305Z,19.53
2022-08-01T00:15:15.433Z,19.53
2022-08-01T00:19:19.945Z,19.51
2022-08-01T00:23:23.646Z,19.50
2022-08-01T00:27:29.779Z,19.53
2022-08-01T00:31:32.944Z,19.53
2022-08-01T00:35:37.571Z,19.52
2022-08-01T00:39:40.754Z,19.53
2022-08-01T00:43:43.989Z,19.51
2022-08-01T00:47:47.070Z,19.48
2022-08-01T00:51:51.613Z,19.48
2022-08-01T00:55:55.412Z,19.47
2022-08-01T00:59:58.928Z,19.46
2022-08-01T01:04:01.989Z,19.50
2022-08-01T01:08:10.352Z,19.46
2022-08-01T01:12:24.357Z,19.43
2022-08-01T01:16:28.715Z,19.45
2022-08-01T01:20:34.524Z,19.44
2022-08-01T01:24:47.621Z,19.42
2022-08-01T01:29:02.218Z,19.42
2022-08-01T01:33:08.577Z,19.43
2022-08-01T01:37:16.492Z,19.46
2022-08-01T01:41:20.940Z,19.43
2022-08-01T01:45:26.561Z,19.45
2022-08-01T01:49:30.870Z,19.42
2022-08-01T01:53:36.996Z,19.39
2022-08-01T01:57:42.719Z,19.43
2022-08-01T02:02:04.879Z,19.46
2022-08-01T02:06:10.323Z,19.48
2022-08-01T02:10:14.297Z,19.52
2022-08-01T02:20:13.451Z,19.53
2022-08-01T02:24:22.906Z,19.53
2022-08-01T02:28:38.257Z,19.53
2022-08-01T02:32:46.389Z,19.52
2022-08-01T02:36:52.327Z,19.50
2022-08-01T02:40:58.636Z,19.51
2022-08-01T02:45:04.580Z,19.46
2022-08-01T02:49:11.231Z,19.40
2022-08-01T02:53:18.744Z,19.34
2022-08-01T02:57:23.590Z,19.27
2022-08-01T03:01:33.921Z,19.23
2022-08-01T03:05:41.123Z,19.28
2022-08-01T03:09:48.283Z,19.29
2022-08-01T03:13:54.033Z,19.32
2022-08-01T03:17:57.853Z,19.34
2022-08-01T03:22:05.091Z,19.32
2022-08-01T03:26:11.568Z,19.31
2022-08-01T03:30:16.571Z,19.27
2022-08-01T03:34:22.304Z,19.25
2022-08-01T03:38:28.004Z,19.27
2022-08-01T03:42:38.775Z,19.30
2022-08-01T03:46:45.567Z,19.28
2022-08-01T03:50:52.428Z,19.37
2022-08-01T03:54:58.400Z,19.33
2022-08-01T03:59:04.561Z,19.36
2022-08-01T04:03:09.768Z,19.39
2022-08-01T04:07:24.617Z,19.31
2022-08-01T04:11:29.766Z,19.36
2022-08-01T04:15:34.296Z,19.37
2022-08-01T04:19:37.436Z,19.34
2022-08-01T04:23:43.485Z,19.37
2022-08-01T04:27:51.964Z,19.39
2022-08-01T04:31:59.143Z,19.42
2022-08-01T04:36:05.092Z,19.40
2022-08-01T04:40:11.023Z,19.44
2022-08-01T04:44:14.811Z,19.52
2022-08-01T04:48:22.857Z,19.53
2022-08-01T04:52:35.599Z,19.50
2022-08-01T04:56:38.732Z,19.46
2022-08-01T05:00:41.897Z,19.42
2022-08-01T05:04:48.219Z,19.39
2022-08-01T05:08:51.304Z,19.40
2022-08-01T05:12:54.498Z,19.50
2022-08-01T05:16:57.544Z,19.55
2022-08-01T05:21:02.979Z,19.57
2022-08-01T05:25:07.179Z,19.66
2022-08-01T05:29:10.268Z,19.80
2022-08-01T05:33:13.302Z,19.70
2022-08-01T05:37:17.648Z,19.79
2022-08-01T05:41:20.777Z,19.88
2022-08-01T05:45:23.976Z,20.03
2022-08-01T05:49:27.188Z,20.28
2022-08-01T05:53:31.883Z,20.38
2022-08-01T05:57:34.979Z,20.44
2022-08-01T06:01:38.084Z,20.19
2022-08-01T06:05:41.132Z,19.98
2022-08-01T06:09:45.603Z,20.33
2022-08-01T06:13:49.091Z,20.27
2022-08-01T06:17:52.279Z,20.24
2022-08-01T06:21:55.405Z,20.07
2022-08-01T06:26:00.133Z,20.16
2022-08-01T06:30:04.847Z,20.21
2022-08-01T06:34:08.004Z,20.27
2022-08-01T06:38:11.179Z,20.42
2022-08-01T06:42:15.978Z,20.23
2022-08-01T06:46:19.073Z,20.67
2022-08-01T06:50:22.107Z,20.44
2022-08-01T06:54:25.208Z,20.47
2022-08-01T06:58:31.507Z,20.52
2022-08-01T07:02:34.998Z,20.68
2022-08-01T07:06:38.074Z,20.70
2022-08-01T07:10:41.176Z,21.08
2022-08-01T07:14:45.709Z,21.04
2022-08-01T07:18:49.193Z,21.33
2022-08-01T07:22:52.405Z,21.40
2022-08-01T07:26:56.079Z,21.71
2022-08-01T07:31:00.481Z,21.68
2022-08-01T07:35:03.900Z,22.00
2022-08-01T07:39:06.946Z,21.83
2022-08-01T07:43:09.953Z,21.84
2022-08-01T07:47:14.389Z,21.36
2022-08-01T07:51:17.438Z,20.99
2022-08-01T07:55:20.531Z,21.21
2022-08-01T07:59:26.212Z,20.97
2022-08-01T08:03:31.316Z,21.51
2022-08-01T08:07:34.496Z,22.42
2022-08-01T08:11:38.507Z,22.59
2022-08-01T08:15:42.898Z,22.96
2022-08-01T08:19:53.257Z,22.55
2022-08-01T15:46:48.677Z,28.50
2022-08-01T15:51:19.038Z,26.41
2022-08-01T15:55:22.418Z,26.04
2022-08-01T15:59:25.565Z,26.24
2022-08-01T16:03:28.889Z,25.70
2022-08-01T16:07:33.407Z,25.84
2022-08-01T16:11:40.916Z,25.72
2022-08-01T16:15:46.074Z,26.45
2022-08-01T16:19:50.827Z,26.62
2022-08-01T16:23:55.261Z,27.61
2022-08-01T16:27:58.467Z,27.70
2022-08-01T16:32:03.600Z,27.41
2022-08-01T16:36:24.713Z,26.93
2022-08-01T16:40:29.689Z,27.18
2022-08-01T16:44:34.207Z,26.83
2022-08-01T16:48:37.982Z,26.87
2022-08-01T16:52:41.931Z,26.58
2022-08-01T16:56:51.784Z,26.96
2022-08-01T17:00:56.801Z,28.00
2022-08-01T17:05:00.554Z,26.88
2022-08-01T17:09:10.563Z,26.64
2022-08-01T17:13:14.984Z,26.44
2022-08-01T17:17:18.332Z,26.42
2022-08-01T17:21:21.558Z,26.59
2022-08-01T17:25:25.584Z,26.02
2022-08-01T17:29:43.563Z,26.09
2022-08-01T17:33:50.524Z,26.03
2022-08-01T17:37:56.204Z,26.13
2022-08-01T17:41:59.322Z,25.89
2022-08-01T17:46:03.833Z,25.28
2022-08-01T17:50:09.345Z,25.41
2022-08-01T17:54:12.891Z,25.61
2022-08-01T17:58:17.748Z,25.30
2022-08-01T18:02:42.708Z,25.49
2022-08-01T18:06:58.364Z,24.96
2022-08-01T18:11:10.301Z,25.44
2022-08-01T18:15:15.159Z,24.72
2022-08-01T18:19:21.083Z,24.79
2022-08-01T18:23:24.177Z,24.60
2022-08-01T18:28:23.132Z,24.51
2022-08-01T18:31:51.491Z,24.38
2022-08-01T18:35:59.267Z,24.45
2022-08-01T18:40:08.236Z,24.38
2022-08-01T18:44:12.542Z,24.26
2022-08-01T18:48:15.628Z,23.04
2022-08-01T18:52:20.063Z,22.94
2022-08-01T18:56:31.875Z,23.11
2022-08-01T19:00:35.138Z,22.58
2022-08-01T19:04:38.523Z,22.27
2022-08-01T19:08:43.517Z,21.93
2022-08-01T19:12:46.676Z,21.46
2022-08-01T19:16:49.855Z,21.40
2022-08-01T19:20:53.008Z,21.22
2022-08-01T19:24:57.443Z,21.03
2022-08-01T19:29:08.800Z,20.83
2022-08-01T19:33:12.265Z,20.65
2022-08-01T19:37:16.049Z,20.47
2022-08-01T19:41:21.983Z,20.33
2022-08-01T19:45:25.504Z,20.09
2022-08-01T19:49:28.708Z,20.02
2022-08-01T19:53:37.009Z,19.68
2022-08-01T19:57:45.202Z,19.47
2022-08-01T20:01:51.647Z,19.34
2022-08-01T20:05:55.072Z,19.25
2022-08-01T20:09:58.410Z,18.97
2022-08-01T20:14:03.293Z,18.86
2022-08-01T20:18:07.422Z,18.63
2022-08-01T20:22:10.616Z,18.61
2022-08-01T20:26:16.299Z,18.49
2022-08-01T20:30:21.276Z,18.55
2022-08-01T20:34:25.785Z,18.33
2022-08-01T20:38:29.566Z,18.22
2022-08-01T20:42:34.630Z,18.24
2022-08-01T20:46:39.918Z,18.12
2022-08-01T20:51:02.578Z,18.01
2022-08-01T20:55:06.498Z,17.84
2022-08-01T20:59:51.538Z,17.67
2022-08-01T21:03:50.096Z,17.60
2022-08-01T21:07:54.799Z,17.45
2022-08-01T21:12:04.242Z,17.37
2022-08-01T21:16:23.814Z,17.34
2022-08-01T21:20:34.268Z,17.21
2022-08-01T21:24:58.422Z,17.13
2022-08-01T21:29:06.065Z,17.02
2022-08-01T21:33:13.949Z,17.05
2022-08-01T21:37:18.966Z,16.94
2022-08-01T21:42:05.033Z,16.96
2022-08-01T21:45:57.800Z,16.87
2022-08-01T21:50:03.181Z,16.82
2022-08-01T21:54:18.986Z,16.71
2022-08-01T21:58:33.256Z,16.67
2022-08-01T22:02:39.176Z,16.68
2022-08-01T22:06:45.201Z,16.48
2022-08-01T22:10:54.979Z,16.50
2022-08-01T22:15:02.878Z,16.42
2022-08-01T22:19:07.451Z,16.36
2022-08-01T22:23:11.524Z,16.20
2022-08-01T22:28:06.645Z,16.02
2022-08-01T22:31:49.348Z,15.97
2022-08-01T22:35:53.622Z,15.89
2022-08-01T22:40:00.610Z,15.79
2022-08-01T22:44:09.520Z,15.71
2022-08-01T22:48:19.137Z,15.64
2022-08-01T22:52:30.238Z,15.59
2022-08-01T22:56:37.309Z,15.59
2022-08-01T23:00:43.798Z,15.52
2022-08-01T23:04:48.652Z,15.48
2022-08-01T23:08:51.851Z,15.44
2022-08-01T23:12:56.438Z,15.30
2022-08-01T23:17:03.418Z,15.26
2022-08-01T23:21:28.391Z,15.28
2022-08-01T23:25:34.374Z,15.30
2022-08-01T23:29:37.657Z,15.26
2022-08-01T23:33:42.071Z,15.08
2022-08-01T23:37:45.128Z,14.97
2022-08-01T23:41:58.426Z,14.98
2022-08-01T23:46:05.318Z,14.98
2022-08-01T23:50:11.468Z,14.99
2022-08-01T23:54:14.836Z,15.00
2022-08-01T23:58:19.644Z,14.99
